Time;durP1;ratioP1;P1;durP2;ratioP2;P2;SDS_P1;SDS_P2;PMS_P1;PMS_P2;Temp;Humidity;BMP_temperature;BMP_pressure;BME280_temperature;BME280_humidity;BME280_pressure;Samples;Min_cycle;Max_cycle;Signal;HPM_P1;HPM_P2
2022/06/23 00:00:28;;;;;;;2.00;1.35;;;20.00;44.00;;;;;;5052043;28;20025;-37
2022/06/23 00:02:55;;;;;;;4.32;1.40;;;20.00;44.20;;;;;;5052633;28;20119;-37
2022/06/23 00:05:24;;;;;;;5.45;1.50;;;19.90;44.50;;;;;;5035604;28;20116;-37
2022/06/23 00:07:53;;;;;;;2.17;1.30;;;20.00;44.50;;;;;;5053544;28;20444;-37
2022/06/23 00:10:36;;;;;;;4.03;1.20;;;19.90;44.50;;;;;;5053055;28;20036;-37
2022/06/23 00:13:03;;;;;;;1.40;1.30;;;19.80;44.80;;;;;;5053262;28;20036;-38
2022/06/23 00:15:41;;;;;;;3.35;1.60;;;19.80;44.90;;;;;;5051899;28;20028;-37
2022/06/23 00:18:23;;;;;;;1.25;1.15;;;19.80;45.10;;;;;;5053601;28;20045;-38
2022/06/23 00:20:52;;;;;;;4.10;1.70;;;19.70;45.30;;;;;;5052880;28;20377;-37
2022/06/23 00:23:30;;;;;;;6.75;1.50;;;19.70;45.40;;;;;;5053217;28;20482;-37
2022/06/23 00:25:55;;;;;;;1.90;1.48;;;19.60;45.60;;;;;;5052809;28;20070;-37
2022/06/23 00:28:29;;;;;;;2.95;1.45;;;19.50;45.90;;;;;;5053070;28;20017;-37
2022/06/23 00:31:00;;;;;;;2.47;1.40;;;19.40;46.30;;;;;;5052913;28;20362;-37
2022/06/23 00:33:30;;;;;;;2.55;1.70;;;19.40;46.40;;;;;;5053109;28;20108;-37
2022/06/23 00:35:57;;;;;;;3.37;1.20;;;19.30;46.50;;;;;;5051794;28;20492;-37
2022/06/23 00:38:37;;;;;;;3.35;1.88;;;19.30;46.70;;;;;;5051580;28;20029;-37
2022/06/23 00:41:03;;;;;;;1.27;1.08;;;19.30;46.80;;;;;;5052777;28;20029;-37
2022/06/23 00:43:29;;;;;;;3.50;1.48;;;19.30;46.90;;;;;;5053326;28;20025;-38
2022/06/23 00:46:30;;;;;;;2.47;1.60;;;19.30;47.10;;;;;;5053087;28;20025;-38
2022/06/23 00:48:59;;;;;;;;;;;19.30;47.30;;;;;;5052638;28;20041;-37
2022/06/23 00:51:36;;;;;;;4.07;1.67;;;19.20;47.60;;;;;;5053356;28;19999;-38
2022/06/23 00:54:24;;;;;;;3.83;1.30;;;19.30;47.70;;;;;;5052942;28;20064;-36
2022/06/23 00:57:08;;;;;;;8.23;1.50;;;19.20;47.70;;;;;;5052815;28;20116;-38
2022/06/23 00:59:38;;;;;;;2.75;1.60;;;19.10;48.00;;;;;;5052815;28;20432;-37
2022/06/23 01:02:27;;;;;;;1.83;1.40;;;19.20;48.00;;;;;;5053582;28;20076;-38
2022/06/23 01:05:21;;;;;;;3.10;1.33;;;19.20;48.20;;;;;;5052885;28;20025;-38
2022/06/23 01:07:52;;;;;;;4.70;1.58;;;19.20;48.30;;;;;;5056151;28;20028;-38
2022/06/23 01:10:35;;;;;;;1.73;1.13;;;19.10;48.40;;;;;;5056720;28;20024;-37
2022/06/23 01:13:18;;;;;;;6.70;1.98;;;19.10;48.50;;;;;;5056238;28;20099;-38
2022/06/23 01:15:58;;;;;;;2.47;1.48;;;19.00;48.70;;;;;;5056112;28;20036;-37
2022/06/23 01:18:35;;;;;;;3.88;1.63;;;18.80;49.10;;;;;;5056590;28;20047;-37
2022/06/23 01:21:19;;;;;;;4.53;1.90;;;18.90;49.30;;;;;;5055719;28;20049;-37
2022/06/23 01:24:04;;;;;;;2.25;1.52;;;18.90;49.20;;;;;;5056211;28;20477;-38
2022/06/23 01:26:52;;;;;;;5.97;1.75;;;19.00;49.30;;;;;;5056183;28;20057;-38
2022/06/23 01:29:24;;;;;;;2.65;1.55;;;18.90;49.40;;;;;;5056191;28;20021;-37
2022/06/23 01:31:58;;;;;;;5.85;2.20;;;19.00;49.40;;;;;;5055802;28;20025;-37
2022/06/23 01:34:38;;;;;;;9.23;1.83;;;18.90;49.50;;;;;;5056053;28;20059;-37
2022/06/23 01:37:24;;;;;;;;;;;18.90;49.60;;;;;;5056444;28;20025;-37
2022/06/23 01:40:09;;;;;;;3.97;1.52;;;18.90;49.70;;;;;;5056151;28;19908;-37
2022/06/23 01:42:59;;;;;;;3.55;1.77;;;18.80;49.90;;;;;;5055666;28;20025;-37
2022/06/23 01:45:34;;;;;;;3.28;2.17;;;18.70;50.20;;;;;;5055838;28;20021;-37
2022/06/23 01:51:39;;;;;;;4.82;2.10;;;18.60;50.80;;;;;;5055086;28;20113;-37
2022/06/23 01:54:07;;;;;;;3.75;1.83;;;18.60;50.80;;;;;;5055559;28;20029;-37
2022/06/23 01:56:50;;;;;;;3.70;1.95;;;18.60;51.00;;;;;;5054107;28;20104;-37
2022/06/23 01:59:21;;;;;;;2.38;1.92;;;18.70;50.80;;;;;;5054242;28;20036;-38
2022/06/23 02:02:19;;;;;;;5.07;1.80;;;18.70;50.70;;;;;;5055287;28;20041;-37
2022/06/23 02:05:25;;;;;;;4.72;2.47;;;18.70;51.00;;;;;;5055508;28;20436;-37
2022/06/23 02:08:02;;;;;;;2.92;2.00;;;18.50;51.40;;;;;;5055222;28;20017;-37
2022/06/23 02:10:39;;;;;;;6.28;1.88;;;18.50;51.50;;;;;;5055400;28;20029;-37
2022/06/23 02:13:23;;;;;;;2.83;2.03;;;18.40;51.60;;;;;;5055321;28;20037;-37
2022/06/23 02:16:13;;;;;;;4.90;2.15;;;18.40;51.90;;;;;;5055375;28;20590;-37
2022/06/23 02:18:38;;;;;;;5.10;2.07;;;18.40;52.00;;;;;;5055106;28;20039;-37
2022/06/23 02:21:35;;;;;;;3.40;1.80;;;18.30;52.10;;;;;;5054622;28;20120;-36
2022/06/23 02:24:33;;;;;;;6.75;2.10;;;18.30;52.20;;;;;;5055238;28;20543;-37
2022/06/23 02:27:12;;;;;;;4.10;2.25;;;18.30;52.50;;;;;;5043363;28;20515;-37
2022/06/23 02:29:43;;;;;;;2.83;2.50;;;18.20;53.00;;;;;;5054843;28;20465;-37
2022/06/23 02:32:40;;;;;;;3.05;1.90;;;18.20;53.20;;;;;;5054659;28;20021;-37
2022/06/23 02:35:37;;;;;;;6.40;2.10;;;18.20;53.30;;;;;;5055388;28;20109;-37
2022/06/23 02:38:09;;;;;;;3.53;2.22;;;18.10;53.60;;;;;;5046289;28;20061;-37
2022/06/23 02:40:37;;;;;;;5.38;2.20;;;18.00;53.70;;;;;;5054622;28;20036;-37
2022/06/23 02:43:11;;;;;;;5.55;2.83;;;18.00;54.10;;;;;;5055193;28;20044;-37
2022/06/23 02:45:40;;;;;;;4.97;1.88;;;17.80;54.50;;;;;;5055082;28;20435;-37
2022/06/23 02:48:30;;;;;;;5.97;2.50;;;17.80;54.90;;;;;;5054442;28;20029;-38
2022/06/23 02:50:55;;;;;;;4.47;2.30;;;17.80;54.80;;;;;;5054725;28;20052;-37
2022/06/23 20:15:26;;;;;;;6.03;3.20;;;28.50;40.20;;;;;;5071194;28;20479;-38
2022/06/23 20:18:03;;;;;;;6.00;3.17;;;28.40;40.20;;;;;;5069493;28;20500;-37
2022/06/23 20:20:36;;;;;;;4.75;3.47;;;28.50;40.10;;;;;;5070362;28;20119;-38
2022/06/23 20:23:32;;;;;;;6.55;3.42;;;28.50;40.00;;;;;;5070596;28;20033;-38
2022/06/23 20:26:01;;;;;;;4.53;3.25;;;28.50;40.50;;;;;;5070423;28;20032;-37
2022/06/23 20:28:54;;;;;;;4.55;3.08;;;28.40;40.00;;;;;;5070183;28;20024;-37
2022/06/23 20:31:26;;;;;;;5.57;3.38;;;28.30;40.10;;;;;;5068733;28;20028;-37
2022/06/23 20:34:10;;;;;;;3.33;3.03;;;28.30;40.30;;;;;;5069763;28;20029;-37
2022/06/23 20:37:32;;;;;;;4.85;4.30;;;28.30;40.60;;;;;;5069723;28;20070;-37
2022/06/23 20:40:19;;;;;;;4.00;3.20;;;28.30;40.70;;;;;;5047572;28;20099;-37
2022/06/23 20:43:06;;;;;;;4.18;2.85;;;28.30;41.00;;;;;;5047754;28;20033;-38
2022/06/23 20:45:43;;;;;;;5.80;3.45;;;28.20;41.30;;;;;;5067131;28;20033;-39
2022/06/23 20:48:30;;;;;;;6.78;3.20;;;28.30;41.40;;;;;;5069878;28;20021;-38
2022/06/23 20:51:26;;;;;;;5.55;3.10;;;28.20;41.70;;;;;;5069858;28;20021;-38
2022/06/23 20:54:07;;;;;;;5.65;3.80;;;28.20;41.90;;;;;;5069763;28;20120;-38
2022/06/23 20:56:55;;;;;;;10.50;3.47;;;28.10;42.20;;;;;;5068150;28;20414;-43
2022/06/23 20:59:30;;;;;;;5.40;3.55;;;28.00;42.40;;;;;;5068165;28;20023;-37
2022/06/23 21:02:29;;;;;;;8.40;3.60;;;28.00;42.50;;;;;;5069671;28;20020;-38
2022/06/23 21:05:20;;;;;;;7.33;4.50;;;27.90;42.70;;;;;;5069512;28;20025;-37
2022/06/23 21:07:58;;;;;;;5.93;3.50;;;27.80;42.70;;;;;;5069553;28;20403;-37
2022/06/23 21:10:33;;;;;;;4.22;3.70;;;27.80;43.20;;;;;;5069372;28;20024;-38
2022/06/23 21:13:11;;;;;;;7.75;3.60;;;27.50;45.40;;;;;;5051086;28;20029;-38
2022/06/23 21:16:18;;;;;;;5.60;3.03;;;27.30;46.90;;;;;;5069172;28;20052;-38
2022/06/23 21:19:04;;;;;;;5.38;3.55;;;27.30;47.30;;;;;;5071481;28;20536;-38
2022/06/23 21:21:50;;;;;;;7.32;3.65;;;27.20;47.50;;;;;;5069243;28;20021;-38
2022/06/23 21:24:49;;;;;;;7.78;3.58;;;27.20;47.40;;;;;;5069173;28;20400;-38
2022/06/23 21:27:45;;;;;;;6.28;2.72;;;27.20;45.90;;;;;;5055792;28;20082;-38
2022/06/23 21:30:17;;;;;;;5.20;3.00;;;27.30;44.50;;;;;;5055857;28;20040;-38
2022/06/23 21:32:54;;;;;;;4.63;3.60;;;27.40;44.40;;;;;;5056032;28;20036;-42
2022/06/23 21:35:30;;;;;;;8.13;3.67;;;27.50;45.30;;;;;;5055876;28;20024;-38
2022/06/23 21:38:01;;;;;;;6.95;3.88;;;27.50;45.10;;;;;;5055595;28;20032;-38
2022/06/23 21:40:36;;;;;;;6.93;3.83;;;27.60;45.70;;;;;;5055540;28;20136;-38
2022/06/23 21:43:03;;;;;;;7.05;4.97;;;27.40;46.80;;;;;;5055970;28;20484;-38
2022/06/23 21:45:53;;;;;;;9.98;4.35;;;27.30;47.00;;;;;;5055276;28;20120;-38
2022/06/23 21:48:49;;;;;;;11.10;4.38;;;27.30;47.30;;;;;;5055779;28;20163;-37
2022/06/23 21:51:34;;;;;;;7.57;4.07;;;27.20;47.60;;;;;;5055519;28;20021;-38
2022/06/23 21:54:19;;;;;;;5.43;3.95;;;27.20;47.90;;;;;;5055411;28;20028;-38
2022/06/23 21:57:26;;;;;;;14.85;5.28;;;27.00;49.10;;;;;;5055057;28;20054;-39
2022/06/23 22:00:10;;;;;;;6.40;4.65;;;27.00;49.20;;;;;;5055223;28;20109;-37
2022/06/23 22:02:47;;;;;;;9.38;4.32;;;27.00;48.60;;;;;;5055434;28;20488;-38
2022/06/23 22:05:52;;;;;;;12.68;4.38;;;27.10;47.70;;;;;;5055964;28;20017;-37
2022/06/23 22:08:22;;;;;;;7.50;3.88;;;27.10;47.60;;;;;;5055392;28;20119;-38
2022/06/23 22:10:50;;;;;;;5.43;3.50;;;27.30;47.20;;;;;;5055311;28;20025;-37
2022/06/23 22:13:22;;;;;;;6.13;3.75;;;27.20;46.80;;;;;;5053323;28;20052;-37
2022/06/23 22:15:53;;;;;;;7.40;4.07;;;27.20;46.50;;;;;;5055083;28;20470;-37
2022/06/23 22:18:39;;;;;;;6.40;4.78;;;27.20;46.50;;;;;;5055176;28;20024;-37
2022/06/23 22:21:17;;;;;;;5.65;3.38;;;27.10;46.60;;;;;;5060361;28;20159;-37
2022/06/23 22:26:39;;;;;;;6.47;3.50;;;26.90;47.00;;;;;;5055306;28;20039;-38
2022/06/23 22:29:26;;;;;;;6.90;3.22;;;26.80;47.40;;;;;;5055570;28;20036;-38
2022/06/23 22:32:18;;;;;;;4.53;3.28;;;26.70;47.90;;;;;;5055241;28;20040;-38
2022/06/23 22:35:03;;;;;;;5.68;3.38;;;26.50;48.10;;;;;;5044222;28;20480;-38
2022/06/23 22:37:49;;;;;;;4.85;3.47;;;26.50;48.50;;;;;;5055218;28;20025;-37
2022/06/23 22:40:21;;;;;;;5.15;3.90;;;26.40;48.90;;;;;;5055197;28;20056;-37
2022/06/23 22:43:27;;;;;;;10.80;3.85;;;26.30;49.10;;;;;;5054961;28;20053;-38
2022/06/23 22:45:57;;;;;;;4.97;3.30;;;26.20;49.40;;;;;;5054268;28;20098;-38
2022/06/23 22:48:25;;;;;;;8.00;3.85;;;26.30;49.40;;;;;;5054944;28;20354;-37
2022/06/23 22:50:51;;;;;;;4.10;3.70;;;26.30;49.40;;;;;;5054408;28;20099;-36
2022/06/23 22:53:23;;;;;;;4.57;3.72;;;26.30;49.70;;;;;;5054183;28;20152;-37
2022/06/23 22:55:51;;;;;;;7.45;4.18;;;26.20;49.90;;;;;;5054647;28;20075;-37
2022/06/23 22:58:48;;;;;;;3.40;3.10;;;26.20;50.00;;;;;;5054430;28;20067;-38
2022/06/23 23:01:35;;;;;;;4.90;3.70;;;26.10;50.40;;;;;;5054602;28;20025;-37
2022/06/23 23:04:05;;;;;;;6.32;4.43;;;26.00;50.70;;;;;;5054844;28;20025;-37
2022/06/23 23:06:37;;;;;;;8.57;4.05;;;26.00;50.80;;;;;;5054135;28;20429;-38
2022/06/23 23:09:19;;;;;;;4.57;3.92;;;25.90;51.10;;;;;;5054212;28;20078;-38
2022/06/23 23:11:46;;;;;;;5.32;3.60;;;25.90;51.30;;;;;;5053971;28;20040;-37
2022/06/23 23:14:20;;;;;;;6.05;4.28;;;25.80;51.30;;;;;;5053677;28;20044;-37
2022/06/23 23:16:45;;;;;;;8.52;5.35;;;25.90;51.20;;;;;;5054082;28;20074;-37
2022/06/23 23:19:20;;;;;;;8.65;4.63;;;25.90;51.40;;;;;;5054862;28;20498;-37
2022/06/23 23:21:46;;;;;;;5.03;4.13;;;25.90;51.40;;;;;;5054413;28;20017;-38
2022/06/23 23:24:18;;;;;;;6.10;4.47;;;25.80;51.40;;;;;;5055398;28;20093;-37
2022/06/23 23:26:48;;;;;;;7.90;4.32;;;25.90;51.30;;;;;;5053850;28;20370;-38
2022/06/23 23:29:25;;;;;;;3.72;3.35;;;26.00;51.10;;;;;;5054578;28;20029;-37
2022/06/23 23:31:54;;;;;;;5.50;4.47;;;25.80;51.20;;;;;;5054154;28;20480;-37
2022/06/23 23:34:26;;;;;;;5.25;4.70;;;25.80;51.20;;;;;;5054226;28;20036;-37
2022/06/23 23:36:52;;;;;;;9.15;4.28;;;25.80;51.30;;;;;;5054000;28;20025;-37
2022/06/23 23:39:39;;;;;;;9.38;3.88;;;25.80;51.20;;;;;;5053488;28;20017;-37
2022/06/23 23:42:06;;;;;;;4.70;4.20;;;25.80;51.10;;;;;;5052043;28;20102;-37
2022/06/23 23:44:32;;;;;;;6.25;5.30;;;25.70;51.20;;;;;;5053968;28;20126;-35
2022/06/23 23:47:12;;;;;;;6.72;4.05;;;25.60;51.20;;;;;;5053685;28;20107;-39
2022/06/23 23:49:44;;;;;;;8.77;3.63;;;25.50;51.20;;;;;;5053501;28;20123;-38
2022/06/23 23:52:11;;;;;;;6.07;4.03;;;25.40;51.30;;;;;;5053313;28;20162;-37
2022/06/23 23:54:47;;;;;;;4.65;3.90;;;25.40;51.50;;;;;;5053188;28;20032;-39
2022/06/23 23:57:14;;;;;;;5.78;4.47;;;25.30;51.60;;;;;;5053633;28;20073;-37
2022/06/23 23:59:40;;;;;;;5.22;4.03;;;25.30;51.60;;;;;;5053746;28;20094;-37
